createdAt,value
2022-08-05T00:01:36.260Z,20.75
2022-08-05T00:04:17.471Z,21.88
2022-08-05T00:06:45.518Z,20.02
2022-08-05T00:09:16.042Z,21.92
2022-08-05T00:11:56.067Z,22.55
2022-08-05T00:14:29.301Z,20.27
2022-08-05T00:17:01.913Z,20.50
2022-08-05T00:19:32.924Z,22.20
2022-08-05T00:22:02.848Z,20.80
2022-08-05T00:24:31.575Z,21.63
2022-08-05T00:26:59.523Z,21.27
2022-08-05T00:29:27.592Z,21.30
2022-08-05T00:32:12.906Z,21.80
2022-08-05T00:35:05.511Z,23.00
2022-08-05T00:37:50.721Z,21.40
2022-08-05T00:40:27.328Z,20.20
2022-08-05T00:43:00.571Z,20.13
2022-08-05T00:45:42.742Z,20.65
2022-08-05T00:48:13.588Z,19.95
2022-08-05T00:50:44.122Z,22.60
2022-08-05T00:54:00.707Z,24.75
2022-08-05T00:56:03.119Z,20.88
2022-08-05T00:58:32.389Z,22.73
2022-08-05T01:00:59.887Z,25.90
2022-08-05T01:03:30.912Z,23.98
2022-08-05T01:06:00.564Z,21.88
2022-08-05T01:08:42.232Z,21.42
2022-08-05T01:11:37.227Z,24.38
2022-08-05T01:14:36.199Z,22.83
2022-08-05T01:17:47.129Z,23.25
2022-08-05T01:20:40.869Z,23.95
2022-08-05T01:23:34.820Z,22.15
2022-08-05T01:26:26.389Z,23.08
2022-08-05T01:29:03.547Z,20.63
2022-08-05T01:31:55.394Z,21.90
2022-08-05T01:34:28.178Z,22.30
2022-08-05T01:37:09.685Z,20.10
2022-08-05T01:39:59.152Z,22.38
2022-08-05T01:42:28.024Z,20.95
2022-08-05T01:45:02.096Z,22.80
2022-08-05T01:47:39.337Z,25.70
2022-08-05T01:50:18.941Z,25.80
2022-08-05T01:53:02.073Z,25.33
2022-08-05T01:55:36.051Z,22.73
2022-08-05T01:58:10.036Z,26.15
2022-08-05T02:00:55.678Z,23.90
2022-08-05T02:03:36.240Z,23.52
2022-08-05T02:06:24.234Z,24.13
2022-08-05T02:08:58.467Z,24.52
2022-08-05T02:11:33.957Z,22.38
2022-08-05T02:14:12.444Z,24.17
2022-08-05T02:16:52.954Z,21.87
2022-08-05T02:19:35.943Z,23.55
2022-08-05T02:22:25.554Z,22.77
2022-08-05T02:25:00.067Z,20.90
2022-08-05T02:27:59.657Z,22.05
2022-08-05T02:30:18.463Z,23.40
2022-08-05T02:32:49.590Z,23.08
2022-08-05T02:35:27.776Z,22.20
2022-08-05T02:37:59.094Z,23.42
2022-08-05T02:40:30.191Z,29.23
2022-08-05T02:42:59.293Z,21.35
2022-08-05T02:45:28.555Z,24.67
2022-08-05T02:48:17.551Z,23.35
2022-08-05T02:50:48.430Z,21.17
2022-08-05T02:53:19.609Z,21.83
2022-08-05T02:56:00.129Z,20.88
2022-08-05T02:58:30.739Z,23.70
2022-08-05T03:01:01.871Z,23.25
2022-08-05T03:03:33.675Z,20.77
2022-08-05T03:06:54.184Z,20.25
2022-08-05T03:08:53.030Z,19.42
2022-08-05T03:11:55.509Z,21.63
2022-08-05T03:14:13.990Z,18.75
2022-08-05T03:16:41.908Z,22.65
2022-08-05T03:19:17.190Z,22.27
2022-08-05T03:21:57.495Z,30.52
2022-08-05T03:24:30.089Z,31.42
2022-08-05T03:27:00.137Z,21.40
2022-08-05T03:29:45.240Z,22.65
2022-08-05T03:32:18.202Z,24.05
2022-08-05T03:34:50.723Z,24.00
2022-08-05T03:37:23.738Z,21.02
2022-08-05T03:40:01.078Z,22.80
2022-08-05T03:42:31.963Z,21.90
2022-08-05T03:44:59.457Z,24.70
2022-08-05T03:47:30.511Z,22.63
2022-08-05T03:50:03.642Z,25.50
2022-08-05T03:54:59.295Z,20.83
2022-08-05T03:56:05.556Z,23.15
2022-08-05T03:58:29.097Z,21.23
2022-08-05T04:01:00.193Z,21.15
2022-08-05T04:03:29.478Z,24.50
2022-08-05T04:05:59.161Z,21.08
2022-08-05T04:08:34.982Z,20.33
2022-08-05T04:11:08.695Z,25.17
2022-08-05T04:13:49.837Z,22.38
2022-08-05T04:16:25.476Z,23.30
2022-08-05T04:19:00.226Z,21.90
2022-08-05T04:22:08.671Z,24.10
2022-08-05T04:24:19.587Z,20.33
2022-08-05T04:26:51.185Z,18.92
2022-08-05T04:29:18.488Z,17.83
2022-08-05T04:31:48.462Z,18.98
2022-08-05T04:34:32.399Z,19.00
2022-08-05T04:37:03.098Z,26.15
2022-08-05T04:39:32.200Z,17.48
2022-08-05T04:42:01.873Z,23.13
2022-08-05T04:44:33.724Z,23.73
2022-08-05T04:47:09.561Z,19.47
2022-08-05T04:50:03.051Z,19.25
2022-08-05T04:52:33.329Z,20.52
2022-08-05T04:55:13.968Z,21.65
2022-08-05T05:00:15.972Z,21.92
2022-08-05T05:02:45.416Z,26.55
2022-08-05T05:05:16.482Z,24.70
2022-08-05T05:08:01.190Z,24.83
2022-08-05T05:10:30.762Z,21.92
2022-08-05T05:13:04.295Z,24.30
2022-08-05T05:15:57.177Z,23.27
2022-08-05T05:18:31.384Z,24.65
2022-08-05T05:21:03.611Z,23.95
2022-08-05T05:23:39.138Z,27.52
2022-08-05T05:26:28.541Z,25.30
2022-08-05T05:29:10.014Z,25.10
2022-08-05T05:31:42.385Z,22.88
2022-08-05T05:34:20.002Z,23.58
2022-08-05T05:36:51.660Z,22.88
2022-08-05T05:39:20.959Z,25.33
2022-08-05T05:41:54.061Z,23.98
2022-08-05T05:44:35.794Z,26.20
2022-08-05T05:47:04.238Z,21.50
2022-08-05T05:49:37.548Z,22.73
2022-08-05T05:52:08.761Z,20.80
2022-08-05T05:57:20.954Z,21.30
2022-08-05T05:59:48.954Z,22.02
2022-08-05T06:02:32.927Z,24.05
2022-08-05T06:05:16.402Z,17.95
2022-08-05T06:08:01.211Z,19.43
2022-08-05T06:10:34.497Z,17.27
2022-08-05T06:13:05.934Z,18.65
2022-08-05T06:16:30.495Z,17.98
2022-08-05T06:21:01.451Z,19.08
2022-08-05T06:23:43.751Z,14.68
2022-08-05T06:26:23.975Z,15.90
2022-08-05T06:28:52.510Z,15.65
2022-08-05T06:31:22.495Z,15.73
2022-08-05T06:34:07.406Z,16.73
2022-08-05T06:36:57.552Z,19.15
2022-08-05T06:39:27.155Z,22.95
2022-08-05T06:42:04.611Z,19.85
2022-08-05T06:44:32.674Z,23.92
2022-08-05T06:47:02.389Z,19.63
2022-08-05T06:50:01.113Z,23.88
2022-08-05T06:52:37.797Z,16.35
2022-08-05T06:55:07.822Z,16.80
2022-08-05T06:57:57.836Z,21.55
2022-08-05T07:00:25.662Z,19.20
2022-08-05T07:02:54.821Z,23.52
2022-08-05T07:05:31.932Z,18.98
2022-08-05T07:08:10.646Z,16.27
2022-08-05T07:10:39.394Z,11.07
2022-08-05T07:13:56.888Z,16.08
2022-08-05T07:17:58.471Z,13.38
2022-08-05T07:20:23.029Z,15.43
2022-08-05T07:22:30.185Z,14.25
2022-08-05T07:25:54.237Z,9.88
2022-08-05T07:27:58.852Z,9.00
2022-08-05T07:30:33.675Z,11.68
2022-08-05T07:33:05.342Z,10.00
2022-08-05T07:36:04.333Z,10.52
2022-08-05T07:38:33.532Z,11.48
2022-08-05T07:42:08.865Z,12.38
2022-08-05T07:44:01.665Z,10.80
2022-08-05T07:46:33.689Z,10.68
2022-08-05T07:49:06.006Z,10.77
2022-08-05T07:51:48.776Z,9.20
2022-08-05T07:54:31.619Z,9.50
2022-08-05T07:57:13.850Z,11.23
2022-08-05T07:59:52.386Z,8.88
2022-08-05T08:02:31.382Z,10.32
2022-08-05T08:05:17.441Z,9.35
2022-08-05T08:08:00.053Z,9.10
2022-08-05T08:10:28.397Z,8.10
2022-08-05T08:12:58.829Z,11.55
2022-08-05T08:15:37.452Z,8.00
2022-08-05T08:18:20.901Z,8.97
2022-08-05T08:21:02.897Z,7.35
2022-08-05T08:24:02.682Z,8.50
2022-08-05T08:26:30.008Z,7.43
2022-08-05T08:29:22.029Z,11.27
2022-08-05T08:31:51.200Z,9.63
2022-08-05T08:34:30.706Z,8.37
2022-08-05T08:37:04.806Z,7.10
2022-08-05T08:39:32.877Z,8.82
2022-08-05T08:42:15.179Z,7.82
2022-08-05T08:45:22.307Z,7.97
2022-08-05T08:48:06.276Z,9.52
2022-08-05T08:51:03.182Z,6.20
2022-08-05T08:53:28.859Z,8.10
2022-08-05T08:56:05.335Z,7.65
2022-08-05T08:58:43.997Z,8.27
2022-08-05T09:01:21.072Z,7.07
2022-08-05T09:03:54.585Z,7.28
2022-08-05T09:06:31.764Z,10.00
2022-08-05T09:09:01.363Z,8.93
2022-08-05T09:11:53.485Z,8.77
2022-08-05T09:14:56.693Z,7.82
2022-08-05T09:17:40.500Z,9.10
2022-08-05T09:20:06.273Z,9.23
2022-08-05T09:23:18.471Z,9.07
2022-08-05T09:26:00.281Z,10.02
2022-08-05T09:28:34.699Z,7.15
2022-08-05T09:31:22.832Z,9.13
2022-08-05T09:34:02.269Z,9.50
2022-08-05T09:36:56.245Z,7.88
2022-08-05T09:39:39.577Z,14.25
2022-08-05T09:42:28.299Z,7.63
2022-08-05T09:45:17.445Z,7.35
2022-08-05T09:47:56.205Z,9.38
2022-08-05T09:50:44.064Z,7.93
2022-08-05T09:53:22.869Z,8.68
2022-08-05T09:56:04.756Z,6.22
2022-08-05T09:58:38.588Z,8.57
2022-08-05T10:01:15.133Z,7.00
2022-08-05T10:04:28.651Z,6.80
2022-08-05T10:06:58.818Z,7.38
2022-08-05T10:09:28.438Z,10.02
2022-08-05T10:12:18.525Z,9.27
2022-08-05T10:15:20.273Z,7.88
2022-08-05T10:18:04.799Z,6.78
2022-08-05T10:20:35.938Z,6.70
2022-08-05T10:23:03.309Z,7.72
2022-08-05T10:25:30.610Z,7.65
2022-08-05T10:28:13.272Z,6.65
2022-08-05T10:32:47.511Z,10.40
2022-08-05T10:33:36.199Z,7.78
2022-08-05T10:36:04.609Z,8.00
2022-08-05T10:38:37.568Z,8.23
2022-08-05T10:41:23.451Z,8.02
2022-08-05T10:44:01.607Z,10.00
2022-08-05T10:46:54.420Z,7.22
2022-08-05T10:49:27.031Z,6.68
2022-08-05T10:52:02.731Z,8.60
2022-08-05T10:55:05.461Z,11.05
2022-08-05T10:57:35.089Z,6.97
2022-08-05T11:00:20.721Z,7.07
2022-08-05T11:03:25.226Z,7.35
2022-08-05T11:06:15.837Z,8.07
2022-08-05T11:09:18.640Z,6.68
2022-08-05T11:11:55.328Z,10.20
2022-08-05T11:18:00.451Z,8.07
2022-08-05T11:20:37.372Z,7.43
2022-08-05T11:24:05.093Z,6.72
2022-08-05T11:26:29.133Z,8.27
2022-08-05T11:29:13.866Z,8.60
2022-08-05T11:31:54.300Z,9.13
2022-08-05T11:34:51.079Z,5.88
2022-08-05T11:38:36.626Z,6.32
2022-08-05T11:41:12.896Z,8.80
2022-08-05T11:44:05.606Z,6.47
2022-08-05T11:47:09.656Z,6.85
2022-08-05T11:49:34.027Z,7.72
2022-08-05T11:52:11.562Z,7.75
2022-08-05T11:54:43.556Z,6.33
2022-08-05T11:57:25.516Z,6.57
2022-08-05T11:59:56.242Z,7.22
2022-08-05T12:02:32.836Z,6.60
2022-08-05T12:05:07.360Z,6.47
2022-08-05T12:08:08.483Z,8.85
2022-08-05T12:10:43.053Z,9.02
2022-08-05T12:13:27.799Z,7.90
2022-08-05T12:16:14.532Z,7.22
2022-08-05T12:18:49.554Z,7.22
2022-08-05T12:21:30.207Z,12.88
2022-08-05T12:24:04.870Z,10.68
2022-08-05T12:26:37.086Z,6.85
2022-08-05T12:31:42.371Z,7.25
2022-08-05T12:34:21.477Z,6.05
2022-08-05T12:36:53.826Z,10.15
2022-08-05T12:39:28.087Z,8.57
2022-08-05T12:42:03.638Z,8.38
2022-08-05T12:44:34.049Z,7.05
2022-08-05T12:47:02.761Z,7.28
2022-08-05T12:50:04.622Z,10.23
2022-08-05T12:52:41.780Z,7.43
2022-08-05T12:55:25.654Z,6.70
2022-08-05T12:58:49.459Z,8.20
2022-08-05T13:02:01.453Z,12.25
2022-08-05T13:03:41.725Z,6.88
2022-08-05T13:06:20.340Z,8.60
2022-08-05T13:08:51.630Z,7.20
2022-08-05T13:11:59.830Z,7.50
2022-08-05T13:14:25.030Z,7.03
2022-08-05T13:17:40.180Z,5.68
2022-08-05T13:20:11.425Z,6.80
2022-08-05T13:22:48.144Z,6.47
2022-08-05T13:25:19.046Z,6.20
2022-08-05T13:27:54.542Z,6.90
2022-08-05T13:30:35.185Z,9.95
2022-08-05T13:33:06.936Z,8.13
2022-08-05T13:35:47.330Z,8.82
2022-08-05T13:38:31.009Z,8.13
2022-08-05T13:41:03.972Z,10.55
2022-08-05T13:43:45.266Z,7.05
2022-08-05T13:46:37.896Z,7.20
2022-08-05T13:49:15.824Z,8.65
2022-08-05T13:51:46.503Z,8.70
2022-08-05T13:54:24.951Z,7.35
2022-08-05T13:56:53.711Z,9.02
2022-08-05T13:59:27.525Z,11.15
2022-08-05T14:02:00.466Z,7.45
2022-08-05T14:04:51.909Z,7.18
2022-08-05T14:07:55.637Z,9.95
2022-08-05T14:10:28.521Z,9.07
2022-08-05T14:13:00.463Z,7.00
2022-08-05T14:16:05.261Z,9.60
2022-08-05T14:18:23.294Z,7.78
2022-08-05T14:20:54.725Z,7.82
2022-08-05T14:23:26.170Z,6.97
2022-08-05T14:25:58.921Z,8.52
2022-08-05T14:28:30.605Z,6.65
2022-08-05T14:31:01.761Z,7.03
2022-08-05T14:33:59.232Z,8.50
2022-08-05T14:36:24.022Z,8.93
2022-08-05T14:38:53.921Z,7.55
2022-08-05T14:41:21.171Z,6.45
2022-08-05T14:43:54.977Z,6.90
2022-08-05T14:46:31.399Z,7.78
2022-08-05T14:49:06.315Z,7.55
2022-08-05T14:51:42.893Z,7.85
2022-08-05T14:54:29.958Z,7.65
2022-08-05T14:57:05.110Z,7.03
2022-08-05T14:59:39.931Z,10.77
2022-08-05T15:02:15.006Z,6.78
2022-08-05T15:04:47.779Z,7.45
2022-08-05T15:08:06.378Z,6.90
2022-08-05T15:10:09.856Z,11.13
2022-08-05T15:13:00.416Z,6.80
2022-08-05T15:15:54.993Z,9.38
2022-08-05T15:18:17.651Z,6.10
2022-08-05T15:20:47.219Z,7.53
2022-08-05T15:23:16.869Z,7.78
2022-08-05T15:25:52.729Z,6.22
2022-08-05T15:28:27.311Z,10.90
2022-08-05T15:30:57.828Z,7.80
2022-08-05T15:34:04.678Z,7.63
2022-08-05T15:36:17.862Z,6.03
2022-08-05T15:40:41.565Z,8.38
2022-08-05T15:41:57.506Z,8.68
2022-08-05T15:44:31.092Z,6.65
2022-08-05T15:47:04.222Z,8.52
2022-08-05T15:49:53.466Z,9.50
2022-08-05T15:52:29.439Z,8.68
2022-08-05T15:57:49.066Z,6.38
2022-08-05T16:00:26.380Z,6.55
2022-08-05T16:03:02.578Z,8.40
2022-08-05T16:05:31.603Z,7.45
2022-08-05T16:07:58.685Z,8.35
2022-08-05T16:10:29.454Z,7.22
2022-08-05T16:12:59.582Z,7.30
2022-08-05T16:15:32.747Z,6.55
2022-08-05T16:18:04.384Z,8.85
2022-08-05T16:20:37.287Z,10.25
2022-08-05T16:23:05.950Z,6.80
2022-08-05T16:25:36.912Z,10.48
2022-08-05T16:28:06.389Z,9.07
2022-08-05T16:30:37.035Z,7.28
2022-08-05T16:33:05.625Z,8.60
2022-08-05T16:35:42.326Z,10.45
2022-08-05T16:38:23.951Z,8.63
2022-08-05T16:40:59.866Z,11.02
2022-08-05T16:43:33.126Z,6.50
2022-08-05T16:46:04.034Z,10.10
2022-08-05T16:48:39.113Z,10.90
2022-08-05T16:51:10.158Z,10.10
2022-08-05T16:54:04.997Z,7.78
2022-08-05T16:56:33.635Z,8.95
2022-08-05T16:59:08.458Z,9.73
2022-08-05T17:01:53.862Z,8.93
2022-08-05T17:04:28.259Z,9.63
2022-08-05T17:07:01.228Z,11.43
2022-08-05T17:09:38.922Z,8.93
2022-08-05T17:12:22.521Z,8.75
2022-08-05T17:15:10.185Z,9.43
2022-08-05T17:17:44.087Z,14.77
2022-08-05T17:20:14.571Z,12.87
2022-08-05T17:22:44.881Z,14.52
2022-08-05T17:25:33.644Z,21.77
2022-08-05T17:28:02.358Z,14.30
2022-08-05T17:32:58.891Z,13.50
2022-08-05T17:35:32.619Z,10.25
2022-08-05T17:38:17.680Z,12.27
2022-08-05T17:40:47.569Z,9.75
2022-08-05T17:43:18.592Z,12.57
2022-08-05T17:48:38.043Z,10.05
2022-08-05T17:51:09.053Z,13.70
2022-08-05T17:53:39.257Z,13.23
2022-08-05T17:56:08.162Z,9.07
2022-08-05T17:58:37.719Z,12.45
2022-08-05T18:01:09.711Z,12.27
2022-08-05T18:03:59.621Z,12.70
2022-08-05T18:06:29.314Z,11.02
2022-08-05T18:08:58.375Z,12.38
2022-08-05T18:11:32.900Z,12.00
2022-08-05T18:14:03.491Z,12.02
2022-08-05T18:16:32.824Z,12.65
2022-08-05T18:18:59.921Z,11.35
2022-08-05T18:22:07.365Z,9.50
2022-08-05T18:24:16.184Z,12.00
2022-08-05T18:26:44.018Z,13.27
2022-08-05T18:29:10.963Z,10.68
2022-08-05T18:31:38.336Z,11.43
2022-08-05T18:34:12.190Z,15.85
2022-08-05T18:36:41.119Z,12.93
2022-08-05T18:39:09.728Z,12.23
2022-08-05T18:41:57.291Z,13.07
2022-08-05T18:44:34.907Z,14.68
2022-08-05T18:47:04.259Z,13.27
2022-08-05T18:49:58.273Z,13.00
2022-08-05T18:52:33.734Z,12.32
2022-08-05T18:55:10.702Z,13.50
2022-08-05T18:57:50.348Z,10.77
2022-08-05T19:00:27.220Z,13.93
2022-08-05T19:03:03.408Z,11.10
2022-08-05T19:06:13.612Z,10.80
2022-08-05T19:08:21.814Z,10.60
2022-08-05T19:13:19.813Z,17.05
2022-08-05T19:15:59.165Z,13.35
2022-08-05T19:18:28.833Z,14.73
2022-08-05T19:20:56.286Z,12.75
2022-08-05T19:24:07.387Z,15.25
2022-08-05T19:26:12.091Z,15.60
2022-08-05T19:28:43.849Z,14.52
2022-08-05T19:31:13.269Z,17.17
2022-08-05T19:33:48.710Z,15.70
2022-08-05T19:36:26.251Z,14.07
2022-08-05T19:39:01.006Z,14.73
2022-08-05T19:41:58.386Z,15.65
2022-08-05T19:44:18.960Z,15.35
2022-08-05T19:46:46.762Z,15.27
2022-08-05T19:49:16.818Z,16.13
2022-08-05T19:52:05.949Z,14.43
2022-08-05T19:54:37.001Z,16.70
2022-08-05T19:57:06.895Z,13.40
2022-08-05T19:59:56.386Z,12.35
2022-08-05T20:02:31.366Z,13.07
2022-08-05T20:05:00.187Z,11.45
2022-08-05T20:07:39.014Z,11.05
2022-08-05T20:10:17.272Z,11.73
2022-08-05T20:12:49.809Z,14.93
2022-08-05T20:15:47.822Z,12.85
2022-08-05T20:18:10.635Z,14.18
2022-08-05T20:20:57.895Z,12.68
2022-08-05T20:23:40.715Z,17.25
2022-08-05T20:26:25.508Z,11.73
2022-08-05T20:28:56.824Z,13.40
2022-08-05T20:31:43.227Z,12.63
2022-08-05T20:34:15.304Z,13.98
2022-08-05T20:36:44.263Z,13.90
2022-08-05T20:39:16.178Z,13.85
2022-08-05T20:41:45.178Z,15.82
2022-08-05T20:44:15.389Z,14.57
2022-08-05T20:46:47.897Z,14.02
2022-08-05T20:49:15.290Z,12.32
2022-08-05T20:51:53.405Z,11.55
2022-08-05T20:56:49.107Z,16.40
2022-08-05T20:59:26.283Z,14.20
2022-08-05T21:01:57.146Z,14.35
2022-08-05T21:04:27.036Z,15.98
2022-08-05T21:06:54.984Z,14.32
2022-08-05T21:09:23.459Z,14.63
2022-08-05T21:12:10.655Z,14.02
2022-08-05T21:14:39.696Z,16.05
2022-08-05T21:17:07.257Z,15.52
2022-08-05T21:19:46.920Z,15.10
2022-08-05T21:22:23.466Z,19.27
2022-08-05T21:24:54.920Z,17.98
2022-08-05T21:27:25.199Z,13.90
2022-08-05T21:29:54.028Z,14.70
2022-08-05T21:32:27.587Z,12.75
2022-08-05T21:35:08.321Z,15.13
2022-08-05T21:37:47.468Z,14.32
2022-08-05T21:40:23.099Z,14.02
2022-08-05T21:45:26.447Z,13.40
2022-08-05T21:48:09.511Z,13.40
2022-08-05T21:50:37.319Z,15.05
2022-08-05T21:53:17.391Z,13.73
2022-08-05T21:56:04.690Z,14.63
2022-08-05T21:58:34.618Z,14.15
2022-08-05T22:01:05.151Z,13.50
2022-08-05T22:03:51.773Z,11.90
2022-08-05T22:06:22.275Z,15.00
2022-08-05T22:08:52.223Z,13.48
2022-08-05T22:11:34.927Z,14.30
2022-08-05T22:14:18.209Z,13.80
2022-08-05T22:16:55.948Z,17.43
2022-08-05T22:20:00.768Z,16.25
2022-08-05T22:22:12.274Z,13.13
2022-08-05T22:25:00.799Z,12.52
2022-08-05T22:28:08.943Z,12.18
2022-08-05T22:30:35.319Z,13.00
2022-08-05T22:33:15.478Z,14.43
2022-08-05T22:35:48.594Z,13.73
2022-08-05T22:38:19.593Z,14.18
2022-08-05T22:40:50.136Z,14.27
2022-08-05T22:43:36.579Z,14.50
2022-08-05T22:46:12.204Z,14.55
2022-08-05T22:48:48.184Z,13.50
2022-08-05T22:51:22.928Z,15.57
2022-08-05T22:53:58.545Z,17.02
2022-08-05T22:59:04.191Z,14.73
2022-08-05T23:02:04.689Z,13.65
2022-08-05T23:04:33.801Z,15.25
2022-08-05T23:07:01.542Z,15.35
2022-08-05T23:09:57.067Z,16.92
2022-08-05T23:12:17.985Z,15.27
2022-08-05T23:14:44.976Z,14.52
2022-08-05T23:17:35.019Z,15.18
2022-08-05T23:20:17.963Z,16.15
2022-08-05T23:22:47.815Z,12.40
2022-08-05T23:25:54.709Z,15.27
2022-08-05T23:28:07.661Z,13.35
2022-08-05T23:30:40.417Z,15.23
2022-08-05T23:33:21.894Z,21.48
2022-08-05T23:35:56.086Z,13.50
2022-08-05T23:38:24.136Z,15.77
2022-08-05T23:40:52.828Z,15.68
2022-08-05T23:43:25.191Z,14.07
2022-08-05T23:49:00.699Z,15.93
2022-08-05T23:51:55.290Z,15.25
2022-08-05T23:54:25.726Z,12.55
2022-08-05T23:57:04.109Z,14.98
2022-08-05T23:59:37.561Z,13.77
